createdAt,value
2018-04-08T00:00:39.144Z,8.20
2018-04-08T00:03:06.635Z,8.20
2018-04-08T00:05:34.155Z,8.20
2018-04-08T00:08:01.652Z,8.20
2018-04-08T00:10:29.912Z,8.30
2018-04-08T00:12:57.464Z,8.30
2018-04-08T00:15:24.972Z,8.20
2018-04-08T00:17:52.472Z,8.20
2018-04-08T00:20:20.097Z,8.20
2018-04-08T00:22:47.599Z,8.10
2018-04-08T00:25:15.097Z,8.10
2018-04-08T00:27:42.640Z,8.10
2018-04-08T00:30:10.145Z,8.10
2018-04-08T00:32:37.640Z,8.10
2018-04-08T00:35:05.192Z,8.10
2018-04-08T00:37:32.684Z,8.10
2018-04-08T00:40:00.945Z,8.10
2018-04-08T00:42:29.450Z,8.10
2018-04-08T00:44:57.728Z,8.00
2018-04-08T00:47:25.228Z,8.10
2018-04-08T00:49:52.764Z,8.00
2018-04-08T00:52:20.268Z,8.00
2018-04-08T00:54:47.765Z,8.00
2018-04-08T00:57:15.315Z,8.00
2018-04-08T00:59:42.828Z,7.90
2018-04-08T01:02:10.324Z,7.90
2018-04-08T01:04:37.916Z,7.90
2018-04-08T01:07:05.420Z,7.90
2018-04-08T01:09:32.928Z,7.90
2018-04-08T01:12:00.498Z,7.90
2018-04-08T01:14:28.764Z,7.90
2018-04-08T01:16:56.272Z,7.90
2018-04-08T01:19:23.816Z,7.90
2018-04-08T01:21:51.316Z,7.90
2018-04-08T01:24:18.819Z,8.00
2018-04-08T01:26:46.360Z,8.00
2018-04-08T01:29:13.857Z,8.10
2018-04-08T01:31:41.366Z,8.10
2018-04-08T01:34:08.941Z,8.10
2018-04-08T01:36:36.506Z,8.10
2018-04-08T01:39:04.008Z,8.00
2018-04-08T01:41:31.552Z,8.00
2018-04-08T01:43:59.060Z,8.00
2018-04-08T01:46:26.568Z,8.00
2018-04-08T01:48:54.112Z,7.90
2018-04-08T01:51:21.613Z,7.90
2018-04-08T01:53:49.113Z,7.90
2018-04-08T01:56:17.442Z,7.80
2018-04-08T01:58:44.949Z,7.80
2018-04-08T02:01:12.441Z,7.80
2018-04-08T02:03:40.808Z,7.70
2018-04-08T02:06:09.075Z,7.70
2018-04-08T02:08:36.585Z,7.60
2018-04-08T02:11:04.116Z,7.60
2018-04-08T02:13:32.368Z,7.50
2018-04-08T02:15:59.864Z,7.50
2018-04-08T02:18:27.397Z,7.50
2018-04-08T02:20:55.133Z,7.40
2018-04-08T02:23:22.640Z,7.40
2018-04-08T02:25:50.969Z,7.40
2018-04-08T02:28:18.471Z,7.40
2018-04-08T02:30:46.757Z,7.40
2018-04-08T02:33:14.308Z,7.40
2018-04-08T02:35:41.800Z,7.40
2018-04-08T02:38:09.313Z,7.50
2018-04-08T02:40:36.861Z,7.50
2018-04-08T02:43:04.357Z,7.50
2018-04-08T02:45:31.854Z,7.50
2018-04-08T02:47:59.392Z,7.60
2018-04-08T02:50:26.884Z,7.60
2018-04-08T02:52:54.385Z,7.50
2018-04-08T02:55:21.952Z,7.50
2018-04-08T02:57:49.452Z,7.50
2018-04-08T03:00:16.953Z,7.50
2018-04-08T03:02:44.506Z,7.50
2018-04-08T03:05:12.004Z,7.50
2018-04-08T03:07:39.501Z,7.50
2018-04-08T03:10:07.031Z,7.50
2018-04-08T03:12:34.532Z,7.50
2018-04-08T03:15:02.039Z,7.50
2018-04-08T03:17:30.353Z,7.50
2018-04-08T03:19:57.852Z,7.50
2018-04-08T03:22:25.347Z,7.50
2018-04-08T03:24:53.690Z,7.50
2018-04-08T03:27:21.192Z,7.50
2018-04-08T03:29:49.452Z,7.40
2018-04-08T03:32:16.972Z,7.50
2018-04-08T03:34:44.496Z,7.40
2018-04-08T03:37:11.992Z,7.40
2018-04-08T03:39:39.531Z,7.40
2018-04-08T03:42:07.033Z,7.40
2018-04-08T03:44:34.540Z,7.40
2018-04-08T03:47:02.156Z,7.30
2018-04-08T03:49:29.621Z,7.30
2018-04-08T03:51:57.847Z,7.30
2018-04-08T03:54:25.387Z,7.30
2018-04-08T03:56:53.652Z,7.30
2018-04-08T03:59:21.153Z,7.30
2018-04-08T04:01:48.716Z,7.30
2018-04-08T04:04:16.213Z,7.30
2018-04-08T04:06:43.717Z,7.30
2018-04-08T04:09:11.231Z,7.20
2018-04-08T04:11:38.740Z,7.20
2018-04-08T04:14:06.239Z,7.20
2018-04-08T04:16:33.808Z,7.20
2018-04-08T04:19:13.020Z,7.20
2018-04-08T04:21:52.336Z,7.20
2018-04-08T04:24:31.552Z,7.20
2018-04-08T04:26:59.836Z,7.20
2018-04-08T04:29:28.107Z,7.10
2018-04-08T04:31:55.600Z,7.10
2018-04-08T04:34:23.121Z,7.10
2018-04-08T04:36:51.540Z,7.10
2018-04-08T04:39:19.040Z,7.10
2018-04-08T04:41:46.766Z,7.10
2018-04-08T04:44:14.264Z,7.10
2018-04-08T04:46:41.764Z,7.10
2018-04-08T04:49:10.362Z,7.20
2018-04-08T04:51:37.861Z,7.10
2018-04-08T04:54:05.353Z,7.10
2018-04-08T04:56:33.666Z,7.20
2018-04-08T04:59:01.176Z,7.20
2018-04-08T05:01:28.675Z,7.20
2018-04-08T05:03:56.203Z,7.20
2018-04-08T05:06:23.696Z,7.30
2018-04-08T05:08:51.183Z,7.30
2018-04-08T05:11:18.764Z,7.40
2018-04-08T05:13:46.292Z,7.40
2018-04-08T05:16:13.904Z,7.40
2018-04-08T05:18:41.447Z,7.50
2018-04-08T05:21:08.942Z,7.50
2018-04-08T05:23:36.444Z,7.60
2018-04-08T05:26:03.955Z,7.60
2018-04-08T05:28:31.452Z,7.70
2018-04-08T05:30:58.959Z,7.80
2018-04-08T05:33:26.521Z,7.80
2018-04-08T05:35:54.746Z,7.80
2018-04-08T05:38:22.249Z,7.90
2018-04-08T05:40:49.797Z,8.00
2018-04-08T05:43:17.304Z,8.00
2018-04-08T05:45:45.575Z,8.10
2018-04-08T05:48:13.880Z,8.10
2018-04-08T05:50:41.387Z,8.10
2018-04-08T05:53:08.886Z,8.20
2018-04-08T05:55:37.186Z,8.30
2018-04-08T05:58:04.725Z,8.30
2018-04-08T06:00:32.241Z,8.40
2018-04-08T06:02:59.777Z,8.50
2018-04-08T06:05:27.277Z,8.50
2018-04-08T06:07:56.974Z,8.60
2018-04-08T06:10:24.502Z,8.70
2018-04-08T06:12:51.995Z,8.80
2018-04-08T06:15:19.503Z,8.80
2018-04-08T06:17:47.104Z,8.90
2018-04-08T06:20:14.788Z,9.00
2018-04-08T06:22:42.292Z,9.10
2018-04-08T06:25:09.847Z,9.10
2018-04-08T06:27:37.361Z,9.20
2018-04-08T06:30:04.933Z,9.30
2018-04-08T06:32:32.466Z,9.30
2018-04-08T06:34:59.973Z,9.40
2018-04-08T06:37:28.267Z,9.60
2018-04-08T06:39:55.788Z,9.50
2018-04-08T06:42:23.306Z,9.60
2018-04-08T06:44:50.821Z,9.70
2018-04-08T06:47:18.410Z,9.80
2018-04-08T06:49:45.911Z,9.90
2018-04-08T06:52:14.180Z,10.10
2018-04-08T06:54:41.718Z,10.10
2018-04-08T06:57:09.233Z,10.20
2018-04-08T06:59:36.736Z,10.30
2018-04-08T07:02:04.291Z,10.40
2018-04-08T07:04:31.792Z,10.50
2018-04-08T07:06:59.296Z,10.60
2018-04-08T07:09:26.864Z,10.70
2018-04-08T07:11:55.132Z,10.90
2018-04-08T07:14:22.624Z,10.90
2018-04-08T07:16:50.173Z,10.90
2018-04-08T07:19:18.456Z,11.10
2018-04-08T07:21:46.747Z,11.20
2018-04-08T07:24:14.276Z,11.20
2018-04-08T07:26:42.542Z,11.40
2018-04-08T07:29:10.051Z,11.40
2018-04-08T07:31:37.623Z,11.50
2018-04-08T07:34:05.885Z,11.70
2018-04-08T07:36:33.392Z,11.60
2018-04-08T07:39:00.932Z,11.70
2018-04-08T07:41:28.431Z,11.80
2018-04-08T07:43:56.697Z,11.90
2018-04-08T07:46:24.228Z,11.90
2018-04-08T07:48:51.760Z,12.00
2018-04-08T07:51:19.264Z,12.10
2018-04-08T07:53:46.856Z,12.10
2018-04-08T07:56:14.361Z,12.20
2018-04-08T07:58:41.858Z,12.20
2018-04-08T08:01:09.400Z,12.30
2018-04-08T08:03:36.897Z,12.40
2018-04-08T08:06:05.188Z,12.50
2018-04-08T08:08:33.491Z,12.70
2018-04-08T08:11:01.001Z,12.70
2018-04-08T08:13:28.499Z,12.80
2018-04-08T08:15:56.050Z,12.90
2018-04-08T08:18:23.548Z,13.00
2018-04-08T08:20:51.060Z,13.10
2018-04-08T08:23:18.584Z,13.20
2018-04-08T08:25:46.089Z,13.30
2018-04-08T08:28:14.352Z,13.50
2018-04-08T08:30:41.884Z,13.50
2018-04-08T08:33:09.388Z,13.70
2018-04-08T08:35:37.653Z,13.90
2018-04-08T08:38:05.966Z,14.00
2018-04-08T08:40:33.460Z,14.00
2018-04-08T08:43:00.956Z,14.10
2018-04-08T08:45:28.488Z,14.20
2018-04-08T08:47:55.989Z,14.30
2018-04-08T08:50:23.523Z,14.40
2018-04-08T08:52:51.111Z,14.50
2018-04-08T08:55:18.604Z,14.50
2018-04-08T08:57:46.116Z,14.60
2018-04-08T09:00:14.410Z,14.80
2018-04-08T09:02:41.912Z,14.80
2018-04-08T09:05:09.413Z,14.90
2018-04-08T09:07:37.721Z,15.10
2018-04-08T09:10:05.220Z,15.10
2018-04-08T09:12:32.812Z,15.20
2018-04-08T09:15:00.361Z,15.30
2018-04-08T09:17:27.871Z,15.40
2018-04-08T09:20:04.554Z,15.40
2018-04-08T09:25:36.684Z,15.70
2018-04-08T09:28:04.192Z,15.60
2018-04-08T09:30:31.719Z,15.70
2018-04-08T09:33:00.060Z,15.80
2018-04-08T09:35:27.556Z,15.70
2018-04-08T09:37:55.060Z,15.80
2018-04-08T09:40:22.620Z,15.80
2018-04-08T09:42:50.124Z,15.90
2018-04-08T09:45:17.640Z,15.90
2018-04-08T09:47:45.171Z,15.90
2018-04-08T09:50:12.718Z,16.00
2018-04-08T09:52:40.219Z,16.00
2018-04-08T09:55:07.824Z,16.00
2018-04-08T09:57:40.315Z,16.00
2018-04-08T10:00:07.808Z,16.00
2018-04-08T10:02:37.992Z,16.00
2018-04-08T10:05:05.492Z,16.00
2018-04-08T10:07:32.994Z,16.10
2018-04-08T10:10:00.520Z,16.10
2018-04-08T10:12:28.024Z,16.10
2018-04-08T10:14:55.519Z,16.10
2018-04-08T10:17:23.811Z,16.30
2018-04-08T10:19:51.429Z,16.30
2018-04-08T10:22:18.932Z,16.30
2018-04-08T10:24:46.510Z,16.40
2018-04-08T10:27:14.016Z,16.50
2018-04-08T10:29:41.517Z,16.50
2018-04-08T10:32:09.060Z,16.60
2018-04-08T10:34:37.397Z,16.60
2018-04-08T10:37:04.901Z,16.60
2018-04-08T10:39:33.189Z,16.70
2018-04-08T10:42:00.686Z,16.60
2018-04-08T10:44:28.188Z,16.70
2018-04-08T10:46:55.723Z,16.70
2018-04-08T10:49:23.225Z,16.70
2018-04-08T10:51:51.530Z,16.80
2018-04-08T10:54:19.088Z,16.80
2018-04-08T10:56:46.600Z,16.90
2018-04-08T10:59:14.103Z,17.00
2018-04-08T11:01:41.669Z,17.00
2018-04-08T11:04:09.164Z,17.10
2018-04-08T11:06:36.664Z,17.00
2018-04-08T11:09:04.967Z,17.00
2018-04-08T11:11:32.544Z,17.00
2018-04-08T11:14:00.069Z,17.10
2018-04-08T11:16:28.372Z,17.20
2018-04-08T11:18:55.876Z,17.20
2018-04-08T11:21:23.385Z,17.40
2018-04-08T11:23:50.937Z,17.40
2018-04-08T11:26:18.451Z,17.50
2018-04-08T11:28:45.953Z,17.50
2018-04-08T11:31:13.555Z,17.60
2018-04-08T11:33:41.060Z,17.60
2018-04-08T11:36:08.567Z,17.60
2018-04-08T11:38:36.095Z,17.60
2018-04-08T11:41:04.360Z,17.70
2018-04-08T11:43:31.851Z,17.60
2018-04-08T11:45:59.416Z,17.70
2018-04-08T11:48:26.916Z,17.70
2018-04-08T11:50:54.424Z,17.80
2018-04-08T11:53:21.960Z,17.80
2018-04-08T11:55:49.670Z,17.90
2018-04-08T11:58:17.176Z,18.00
2018-04-08T12:00:44.740Z,18.10
2018-04-08T12:03:12.239Z,18.10
2018-04-08T12:05:39.740Z,18.10
2018-04-08T12:08:07.313Z,18.10
2018-04-08T12:10:34.818Z,18.20
2018-04-08T12:13:02.332Z,18.20
2018-04-08T12:15:29.868Z,18.20
2018-04-08T12:17:57.364Z,18.20
2018-04-08T12:20:24.860Z,18.20
2018-04-08T12:22:52.408Z,18.30
2018-04-08T12:25:19.908Z,18.40
2018-04-08T12:27:47.428Z,18.40
2018-04-08T12:30:15.767Z,18.60
2018-04-08T12:32:43.493Z,18.50
2018-04-08T12:35:10.996Z,18.60
2018-04-08T12:37:38.552Z,18.60
2018-04-08T12:40:06.057Z,18.60
2018-04-08T12:42:33.584Z,18.70
2018-04-08T12:45:01.115Z,18.70
2018-04-08T12:47:28.620Z,18.80
2018-04-08T12:49:56.889Z,18.70
2018-04-08T12:52:24.420Z,18.70
2018-04-08T12:54:51.920Z,18.70
2018-04-08T12:57:20.238Z,18.70
2018-04-08T12:59:47.772Z,18.60
2018-04-08T13:02:16.038Z,18.60
2018-04-08T13:04:43.544Z,18.60
2018-04-08T13:07:11.113Z,18.60
2018-04-08T13:09:38.616Z,18.60
2018-04-08T13:12:06.127Z,18.60
2018-04-08T13:14:33.684Z,18.60
2018-04-08T13:17:01.178Z,18.60
2018-04-08T13:19:28.689Z,18.60
2018-04-08T13:21:56.272Z,18.70
2018-04-08T13:24:23.780Z,18.70
2018-04-08T13:26:51.275Z,18.70
2018-04-08T13:29:18.804Z,18.60
2018-04-08T13:31:47.084Z,18.60
2018-04-08T13:34:14.589Z,18.50
2018-04-08T13:36:42.145Z,18.60
2018-04-08T13:39:09.669Z,18.50
2018-04-08T13:41:37.198Z,18.50
2018-04-08T13:44:04.790Z,18.60
2018-04-08T13:46:33.061Z,18.60
2018-04-08T13:49:01.335Z,18.60
2018-04-08T13:51:29.636Z,18.60
2018-04-08T13:53:57.892Z,18.60
2018-04-08T13:56:25.393Z,18.60
2018-04-08T13:58:52.937Z,18.60
2018-04-08T14:01:20.450Z,18.60
2018-04-08T14:03:47.953Z,18.60
2018-04-08T14:06:15.476Z,18.60
2018-04-08T14:08:42.980Z,18.60
2018-04-08T14:11:10.559Z,18.60
2018-04-08T14:13:38.140Z,18.60
2018-04-08T14:16:05.644Z,18.60
2018-04-08T14:18:33.150Z,18.60
2018-04-08T14:21:00.708Z,18.70
2018-04-08T14:23:28.212Z,18.70
2018-04-08T14:25:55.721Z,18.70
2018-04-08T14:28:23.260Z,18.70
2018-04-08T14:30:50.761Z,18.70
2018-04-08T14:33:18.284Z,18.70
2018-04-08T14:35:45.974Z,18.70
2018-04-08T14:38:13.476Z,18.60
2018-04-08T14:40:40.973Z,18.60
2018-04-08T14:43:08.548Z,18.60
2018-04-08T14:45:36.048Z,18.60
2018-04-08T14:48:03.558Z,18.60
2018-04-08T14:50:31.095Z,18.70
2018-04-08T14:52:59.371Z,18.70
2018-04-08T14:55:27.638Z,18.70
2018-04-08T14:57:55.169Z,18.70
2018-04-08T15:00:22.672Z,18.70
2018-04-08T15:02:50.180Z,18.70
2018-04-08T15:05:17.725Z,18.70
2018-04-08T15:07:45.232Z,18.60
2018-04-08T15:10:12.872Z,18.60
2018-04-08T15:12:40.444Z,18.50
2018-04-08T15:15:07.958Z,18.40
2018-04-08T15:17:35.456Z,18.50
2018-04-08T15:20:03.037Z,18.50
2018-04-08T15:22:30.539Z,18.60
2018-04-08T15:24:58.031Z,18.70
2018-04-08T15:27:25.601Z,18.70
2018-04-08T15:29:53.095Z,18.80
2018-04-08T15:32:20.593Z,18.90
2018-04-08T15:34:48.179Z,19.00
2018-04-08T15:37:15.677Z,19.00
2018-04-08T15:39:43.170Z,19.10
2018-04-08T15:42:10.712Z,19.10
2018-04-08T15:44:38.220Z,19.20
2018-04-08T15:47:05.725Z,19.10
2018-04-08T15:49:34.046Z,18.90
2018-04-08T15:52:01.544Z,18.90
2018-04-08T15:54:29.040Z,18.80
2018-04-08T15:56:56.624Z,18.80
2018-04-08T15:59:24.124Z,18.70
2018-04-08T16:01:51.633Z,18.60
2018-04-08T16:04:19.180Z,18.40
2018-04-08T16:06:47.453Z,18.00
2018-04-08T16:09:15.744Z,17.80
2018-04-08T16:11:43.278Z,17.80
2018-04-08T16:14:11.050Z,17.70
2018-04-08T16:16:38.572Z,17.50
2018-04-08T16:19:06.152Z,17.50
2018-04-08T16:21:33.652Z,17.40
2018-04-08T16:24:01.148Z,17.30
2018-04-08T16:26:28.682Z,17.20
2018-04-08T16:28:56.188Z,17.10
2018-04-08T16:31:27.352Z,17.10
2018-04-08T16:33:58.055Z,17.00
2018-04-08T16:36:25.557Z,16.90
2018-04-08T16:38:53.062Z,16.90
2018-04-08T16:41:20.606Z,16.80
2018-04-08T16:43:48.107Z,16.70
2018-04-08T16:46:15.600Z,16.70
2018-04-08T16:48:43.894Z,16.50
2018-04-08T16:51:11.422Z,16.50
2018-04-08T16:53:38.926Z,16.40
2018-04-08T16:56:06.484Z,16.40
2018-04-08T16:58:33.985Z,16.30
2018-04-08T17:01:01.487Z,16.20
2018-04-08T17:03:29.830Z,16.10
2018-04-08T17:05:57.336Z,16.10
2018-04-08T17:08:24.841Z,16.00
2018-04-08T17:10:52.403Z,15.90
2018-04-08T17:13:19.914Z,15.80
2018-04-08T17:15:47.408Z,15.80
2018-04-08T17:18:14.948Z,15.70
2018-04-08T17:20:42.460Z,15.60
2018-04-08T17:23:09.990Z,15.50
2018-04-08T17:25:37.534Z,15.40
2018-04-08T17:28:05.032Z,15.30
2018-04-08T17:30:32.537Z,15.20
2018-04-08T17:33:00.104Z,15.10
2018-04-08T17:35:27.652Z,15.00
2018-04-08T17:37:55.920Z,14.80
2018-04-08T17:40:23.465Z,14.80
2018-04-08T17:42:50.978Z,14.70
2018-04-08T17:45:18.484Z,14.60
2018-04-08T17:47:46.089Z,14.40
2018-04-08T17:50:13.584Z,14.20
2018-04-08T17:52:41.080Z,14.10
2018-04-08T17:55:08.647Z,14.00
2018-04-08T17:57:36.920Z,13.80
2018-04-08T18:00:04.432Z,13.80
2018-04-08T18:02:32.110Z,13.70
2018-04-08T18:04:59.608Z,13.60
2018-04-08T18:07:27.873Z,13.40
2018-04-08T18:09:55.428Z,13.40
2018-04-08T18:12:22.939Z,13.30
2018-04-08T18:14:50.476Z,13.20
2018-04-08T18:17:18.828Z,13.10
2018-04-08T18:19:46.328Z,13.10
2018-04-08T18:22:13.824Z,13.00
2018-04-08T18:24:41.348Z,13.00
2018-04-08T18:27:08.844Z,12.90
2018-04-08T18:29:36.348Z,12.80
2018-04-08T18:32:03.900Z,12.70
2018-04-08T18:34:31.401Z,12.60
2018-04-08T18:36:58.912Z,12.60
2018-04-08T18:39:26.489Z,12.50
2018-04-08T18:41:53.986Z,12.40
2018-04-08T18:44:21.488Z,12.40
2018-04-08T18:46:49.840Z,12.30
2018-04-08T18:49:17.341Z,12.30
2018-04-08T18:51:44.851Z,12.20
2018-04-08T18:54:12.392Z,12.20
2018-04-08T18:56:39.904Z,12.10
2018-04-08T18:59:07.410Z,12.00
2018-04-08T19:01:34.998Z,11.90
2018-04-08T19:04:02.500Z,11.90
2018-04-08T19:06:30.006Z,11.80
2018-04-08T19:08:57.566Z,11.80
2018-04-08T19:11:25.082Z,11.80
2018-04-08T19:13:53.211Z,11.80
2018-04-08T19:16:20.801Z,11.70
2018-04-08T19:18:48.474Z,11.70
2018-04-08T19:21:15.984Z,11.70
2018-04-08T19:23:43.560Z,11.70
2018-04-08T19:26:11.064Z,11.60
2018-04-08T19:28:38.574Z,11.60
2018-04-08T19:31:06.124Z,11.60
2018-04-08T19:33:33.652Z,11.50
2018-04-08T19:36:01.153Z,11.40
2018-04-08T19:38:28.704Z,11.40
2018-04-08T19:40:56.241Z,11.30
2018-04-08T19:43:23.761Z,11.30
2018-04-08T19:45:51.348Z,11.20
2018-04-08T19:48:19.631Z,11.10
2018-04-08T19:50:47.127Z,11.10
2018-04-08T19:53:14.680Z,11.10
2018-04-08T19:55:42.952Z,11.00
2018-04-08T19:58:10.456Z,11.00
2018-04-08T20:00:38.764Z,11.00
2018-04-08T20:03:06.271Z,10.90
2018-04-08T20:05:33.812Z,10.90
2018-04-08T20:08:02.116Z,10.90
2018-04-08T20:10:29.617Z,10.90
2018-04-08T20:12:57.113Z,10.90
2018-04-08T20:15:25.494Z,10.90
2018-04-08T20:17:53.756Z,10.90
2018-04-08T20:20:21.257Z,10.90
2018-04-08T20:22:48.845Z,10.90
2018-04-08T20:25:16.341Z,10.90
2018-04-08T20:27:43.840Z,10.90
2018-04-08T20:30:11.405Z,10.90
2018-04-08T20:32:38.906Z,10.90
2018-04-08T20:35:06.404Z,10.90
2018-04-08T20:37:34.740Z,10.80
2018-04-08T20:40:02.240Z,10.80
2018-04-08T20:42:30.509Z,10.80
2018-04-08T20:44:58.056Z,10.80
2018-04-08T20:47:25.556Z,10.80
2018-04-08T20:49:53.062Z,10.80
2018-04-08T20:52:20.644Z,10.80
2018-04-08T20:54:48.153Z,10.80
2018-04-08T20:57:15.660Z,10.80
2018-04-08T20:59:43.180Z,10.80
2018-04-08T21:02:10.680Z,10.80
2018-04-08T21:04:38.184Z,10.80
2018-04-08T21:07:05.756Z,10.80
2018-04-08T21:09:33.261Z,10.90
2018-04-08T21:12:00.756Z,10.90
2018-04-08T21:14:28.304Z,10.90
2018-04-08T21:16:55.802Z,10.90
2018-04-08T21:19:29.121Z,10.90
2018-04-08T21:21:56.620Z,10.90
2018-04-08T21:24:24.123Z,10.90
2018-04-08T21:26:51.692Z,10.90
2018-04-08T21:29:19.188Z,10.90
2018-04-08T21:31:46.698Z,10.80
2018-04-08T21:34:14.252Z,10.70
2018-04-08T21:36:41.769Z,10.70
2018-04-08T21:39:10.044Z,10.60
2018-04-08T21:41:37.583Z,10.60
2018-04-08T21:44:05.084Z,10.50
2018-04-08T21:46:33.348Z,10.40
2018-04-08T21:49:00.917Z,10.40
2018-04-08T21:51:29.236Z,10.40
2018-04-08T21:53:56.709Z,10.40
2018-04-08T21:56:24.243Z,10.40
2018-04-08T21:58:51.744Z,10.30
2018-04-08T22:01:19.248Z,10.30
2018-04-08T22:03:46.787Z,10.30
2018-04-08T22:06:15.053Z,10.20
2018-04-08T22:08:42.551Z,10.20
2018-04-08T22:11:10.119Z,10.20
2018-04-08T22:13:37.623Z,10.10
2018-04-08T22:16:05.120Z,10.10
2018-04-08T22:18:33.464Z,10.10
2018-04-08T22:21:00.955Z,10.00
2018-04-08T22:23:29.221Z,10.00
2018-04-08T22:25:56.810Z,10.00
2018-04-08T22:28:24.313Z,10.00
2018-04-08T22:30:51.807Z,10.00
2018-04-08T22:33:19.353Z,10.00
2018-04-08T22:35:46.969Z,10.00
2018-04-08T22:38:14.519Z,9.90
2018-04-08T22:40:42.035Z,9.90
2018-04-08T22:43:09.534Z,9.90
2018-04-08T22:45:37.035Z,9.90
2018-04-08T22:48:04.664Z,9.80
2018-04-08T22:50:32.121Z,9.80
2018-04-08T22:52:59.612Z,9.70
2018-04-08T22:55:27.712Z,9.70
2018-04-08T22:57:55.209Z,9.70
2018-04-08T23:00:25.416Z,9.80
2018-04-08T23:02:53.700Z,9.80
2018-04-08T23:05:21.200Z,9.70
2018-04-08T23:07:48.700Z,9.80
2018-04-08T23:10:16.299Z,9.80
2018-04-08T23:12:43.808Z,9.80
2018-04-08T23:15:11.300Z,9.70
2018-04-08T23:17:39.607Z,9.80
2018-04-08T23:20:07.105Z,9.80
2018-04-08T23:22:34.606Z,9.90
2018-04-08T23:25:02.133Z,9.90
2018-04-08T23:27:29.628Z,9.90
2018-04-08T23:29:57.127Z,10.00
2018-04-08T23:32:24.692Z,10.00
2018-04-08T23:34:52.195Z,10.10
2018-04-08T23:37:19.692Z,10.20
2018-04-08T23:39:47.228Z,10.30
2018-04-08T23:42:14.724Z,10.30
2018-04-08T23:44:42.232Z,10.30
2018-04-08T23:47:09.772Z,10.30
2018-04-08T23:49:37.270Z,10.30
2018-04-08T23:52:05.004Z,10.30
2018-04-08T23:54:32.580Z,10.30
2018-04-08T23:57:00.092Z,10.30
2018-04-08T23:59:28.363Z,10.20
